CRL weather

Brussels South Charleroi Airport
Brussels, Hainaut, Belgium

Public forecast

Using degrees Celsius for public forecast. Weather courtesy of forecast.io.

Current aviation weather report (METAR) for Brussels South Charleroi Airport

Retrieved 2019/12/08 05:20 UTC (0 seconds ago):

EBCI 080520Z 21018G28KT 9999 BKN012 BKN016 09/07 Q1007 TEMPO 21018G34KT 4000 DZRA BR BKN010

Aviation forecast (TAF) for Brussels South Charleroi Airport

Retrieved 2019-12-08 00:27 UTC (5 hours ago):

TAF EBCI 072320Z 0800/0906 21012KT 9999 SCT016 BECMG 0802/0804 22019G35KT TEMPO 0804/0812 3500 RA RADZ BKN008 BECMG 0811/0813 24014KT TEMPO 0818/0906 3000 SHRAGS BKN014CB PROB40 TEMPO 0819/0904 23018G30KT